createdAt,value
2022-10-13T00:00:27.593Z,12.300
2022-10-13T00:01:27.615Z,12.000
2022-10-13T00:02:30.820Z,11.700
2022-10-13T00:03:24.866Z,12.900
2022-10-13T00:04:34.783Z,11.650
2022-10-13T00:06:56.604Z,11.850
2022-10-13T00:07:43.774Z,11.500
2022-10-13T00:08:30.255Z,12.800
2022-10-13T00:09:39.423Z,12.100
2022-10-13T00:10:29.568Z,14.550
2022-10-13T00:11:23.540Z,16.100
2022-10-13T00:12:22.367Z,17.500
2022-10-13T00:13:20.377Z,18.300
2022-10-13T00:14:44.455Z,19.350
2022-10-13T00:15:31.453Z,19.800
2022-10-13T00:16:38.537Z,18.800
2022-10-13T00:17:28.717Z,15.300
2022-10-13T00:18:29.369Z,16.300
2022-10-13T00:19:25.126Z,15.400
2022-10-13T00:20:26.161Z,14.400
2022-10-13T00:21:48.234Z,13.150
2022-10-13T00:22:37.239Z,12.700
2022-10-13T00:23:21.520Z,12.950
2022-10-13T00:24:37.063Z,13.800
2022-10-13T00:25:32.454Z,13.000
2022-10-13T00:26:25.188Z,13.500
2022-10-13T00:27:29.691Z,12.300
2022-10-13T00:28:27.051Z,12.650
2022-10-13T00:29:42.198Z,13.400
2022-10-13T00:30:26.245Z,12.700
2022-10-13T00:31:43.723Z,13.100
2022-10-13T00:32:34.042Z,16.700
2022-10-13T00:33:27.653Z,15.700
2022-10-13T00:34:30.376Z,14.900
2022-10-13T00:35:25.941Z,17.250
2022-10-13T00:36:44.002Z,18.100
2022-10-13T00:37:28.570Z,18.450
2022-10-13T00:38:48.182Z,14.300
2022-10-13T00:39:22.454Z,14.000
2022-10-13T00:40:34.046Z,13.500
2022-10-13T00:41:28.075Z,13.000
2022-10-13T00:42:29.897Z,12.700
2022-10-13T00:43:24.903Z,17.000
2022-10-13T00:44:29.310Z,18.800
2022-10-13T00:45:27.719Z,17.350
2022-10-13T00:46:44.381Z,14.400
2022-10-13T00:47:37.266Z,14.100
2022-10-13T00:48:28.680Z,14.800
2022-10-13T00:49:22.078Z,14.150
2022-10-13T00:50:30.874Z,13.300
2022-10-13T00:51:22.192Z,12.900
2022-10-13T00:52:47.192Z,12.900
2022-10-13T00:53:46.037Z,12.850
2022-10-13T00:54:42.299Z,13.000
2022-10-13T00:55:29.167Z,12.700
2022-10-13T00:56:26.223Z,12.400
2022-10-13T00:57:35.314Z,13.300
2022-10-13T00:58:25.419Z,14.400
2022-10-13T00:59:23.827Z,15.950
2022-10-13T01:00:55.116Z,16.200
2022-10-13T01:01:53.036Z,16.100
2022-10-13T01:02:31.993Z,16.000
2022-10-13T01:03:33.516Z,16.800
2022-10-13T01:44:26.490Z,14.700
2022-10-13T01:45:40.576Z,14.300
2022-10-13T01:46:25.735Z,14.900
2022-10-13T01:47:40.996Z,13.750
2022-10-13T01:48:35.136Z,14.000
2022-10-13T01:49:48.970Z,14.300
2022-10-13T01:50:37.594Z,16.800
2022-10-13T01:51:27.677Z,14.150
2022-10-13T02:28:39.561Z,13.300
2022-10-13T02:29:31.500Z,13.400
2022-10-13T02:30:59.088Z,12.950
2022-10-13T02:31:49.685Z,13.100
2022-10-13T02:32:30.538Z,13.500
2022-10-13T02:33:22.130Z,14.750
2022-10-13T02:34:29.742Z,16.600
2022-10-13T02:35:25.037Z,15.000
2022-10-13T02:36:30.267Z,14.000
2022-10-13T02:37:22.112Z,14.150
2022-10-13T02:38:36.467Z,14.200
2022-10-13T02:39:19.735Z,14.400
2022-10-13T02:40:30.353Z,14.950
2022-10-13T02:41:29.798Z,15.350
2022-10-13T02:42:25.515Z,16.500
2022-10-13T02:43:28.025Z,17.450
2022-10-13T02:44:20.092Z,17.100
2022-10-13T02:45:23.307Z,16.150
2022-10-13T02:46:43.107Z,16.000
2022-10-13T02:47:28.382Z,15.400
2022-10-13T02:48:36.675Z,18.350
2022-10-13T02:49:26.726Z,22.600
2022-10-13T02:50:24.771Z,21.700
2022-10-13T02:51:23.169Z,22.200
2022-10-13T02:52:24.129Z,17.050
2022-10-13T02:53:19.921Z,17.300
2022-10-13T02:54:23.821Z,17.700
2022-10-13T02:55:25.923Z,17.000
2022-10-13T02:56:37.776Z,16.600
2022-10-13T02:57:29.286Z,16.300
2022-10-13T02:58:31.136Z,15.550
2022-10-13T02:59:30.681Z,15.400
2022-10-13T03:00:20.748Z,15.800
2022-10-13T03:01:29.884Z,15.400
2022-10-13T03:02:23.326Z,15.750
2022-10-13T03:03:37.590Z,16.000
2022-10-13T03:04:29.865Z,15.900
2022-10-13T03:05:22.436Z,15.700
2022-10-13T03:06:34.876Z,16.500
2022-10-13T03:07:26.019Z,16.700
2022-10-13T03:08:32.869Z,17.500
2022-10-13T03:09:27.364Z,16.750
2022-10-13T03:10:24.140Z,17.000
2022-10-13T03:11:28.384Z,17.250
2022-10-13T03:12:30.557Z,17.300
2022-10-13T03:13:36.755Z,17.400
2022-10-13T03:14:30.573Z,17.750
2022-10-13T03:15:22.206Z,17.800
2022-10-13T03:16:28.499Z,18.800
2022-10-13T03:17:23.621Z,17.700
2022-10-13T03:18:34.020Z,19.250
2022-10-13T03:19:31.829Z,17.500
2022-10-13T03:20:27.821Z,17.550
2022-10-13T03:21:32.911Z,18.100
2022-10-13T03:22:23.054Z,18.750
2022-10-13T03:23:25.699Z,20.700
2022-10-13T03:24:22.303Z,21.500
2022-10-13T03:25:37.006Z,24.150
2022-10-13T03:26:27.894Z,30.800
2022-10-13T03:27:27.950Z,22.200
2022-10-13T03:28:19.870Z,24.400
2022-10-13T03:29:30.183Z,20.750
2022-10-13T03:30:27.204Z,23.900
2022-10-13T03:31:21.776Z,21.900
2022-10-13T03:32:33.808Z,21.200
2022-10-13T03:33:27.621Z,20.200
2022-10-13T03:34:25.094Z,20.900
2022-10-13T03:35:21.859Z,21.800
2022-10-13T03:36:31.979Z,26.500
2022-10-13T03:37:27.643Z,31.200
2022-10-13T03:38:30.060Z,31.000
2022-10-13T03:39:24.017Z,31.900
2022-10-13T03:40:31.879Z,27.900
2022-10-13T03:41:25.994Z,22.400
2022-10-13T03:42:24.401Z,20.300
2022-10-13T03:43:23.452Z,19.700
2022-10-13T03:44:28.668Z,19.200
2022-10-13T03:45:21.798Z,20.200
2022-10-13T03:46:31.970Z,24.150
2022-10-13T03:47:29.270Z,27.700
2022-10-13T03:48:25.971Z,27.150
2022-10-13T03:49:22.436Z,23.800
2022-10-13T03:50:24.527Z,20.400
2022-10-13T03:51:26.007Z,19.600
2022-10-13T03:52:22.655Z,20.100
2022-10-13T03:53:24.122Z,23.150
2022-10-13T03:54:29.265Z,26.400
2022-10-13T03:55:38.088Z,24.500
2022-10-13T03:56:22.138Z,20.800
2022-10-13T03:57:31.604Z,23.950
2022-10-13T03:58:21.661Z,24.800
2022-10-13T03:59:23.999Z,21.400
2022-10-13T04:00:26.026Z,21.900
2022-10-13T04:01:42.028Z,20.900
2022-10-13T04:02:23.894Z,20.400
2022-10-13T04:03:20.030Z,21.650
2022-10-13T04:04:32.433Z,18.700
2022-10-13T04:05:28.049Z,18.200
2022-10-13T04:06:21.967Z,17.800
2022-10-13T04:07:27.159Z,19.350
2022-10-13T04:08:24.936Z,18.450
2022-10-13T04:09:24.917Z,17.700
2022-10-13T04:10:21.759Z,18.000
2022-10-13T04:11:29.827Z,17.750
2022-10-13T04:12:26.441Z,17.700
2022-10-13T04:13:26.692Z,17.050
2022-10-13T04:14:25.325Z,17.750
2022-10-13T04:15:30.123Z,17.800
2022-10-13T04:16:26.007Z,17.600
2022-10-13T04:17:20.287Z,18.050
2022-10-13T04:18:29.907Z,17.200
2022-10-13T04:19:28.383Z,17.400
2022-10-13T04:20:21.991Z,20.250
2022-10-13T04:21:23.263Z,22.850
2022-10-13T04:22:30.530Z,20.900
2022-10-13T04:23:24.343Z,21.650
2022-10-13T04:24:23.740Z,22.400
2022-10-13T04:25:23.503Z,19.150
2022-10-13T04:26:25.636Z,17.500
2022-10-13T04:27:24.178Z,17.450
2022-10-13T04:28:24.385Z,17.300
2022-10-13T04:29:27.734Z,18.200
2022-10-13T04:30:28.581Z,18.250
2022-10-13T04:31:21.614Z,18.150
2022-10-13T04:32:30.332Z,18.300
2022-10-13T04:33:27.328Z,19.500
2022-10-13T04:34:23.590Z,24.900
2022-10-13T04:35:25.602Z,25.850
2022-10-13T04:36:25.748Z,25.350
2022-10-13T04:37:23.766Z,20.500
2022-10-13T04:38:23.134Z,22.500
2022-10-13T04:39:31.924Z,18.400
2022-10-13T04:40:27.828Z,18.500
2022-10-13T04:41:21.743Z,17.850
2022-10-13T04:42:33.449Z,17.250
2022-10-13T04:43:26.997Z,18.000
2022-10-13T04:44:23.766Z,20.400
2022-10-13T04:45:23.465Z,17.950
2022-10-13T04:46:23.888Z,17.100
2022-10-13T04:47:27.001Z,17.300
2022-10-13T04:48:25.116Z,17.050
2022-10-13T04:49:34.361Z,17.600
2022-10-13T04:50:30.884Z,17.700
2022-10-13T04:51:29.358Z,17.700
2022-10-13T04:52:20.024Z,18.100
2022-10-13T04:53:26.890Z,17.200
2022-10-13T04:54:22.779Z,19.400
2022-10-13T04:55:26.455Z,23.250
2022-10-13T04:56:33.991Z,25.100
2022-10-13T04:57:33.747Z,21.500
2022-10-13T04:58:27.907Z,22.600
2022-10-13T04:59:19.895Z,27.600
2022-10-13T05:00:31.023Z,25.600
2022-10-13T05:01:27.586Z,20.850
2022-10-13T05:02:25.837Z,18.300
2022-10-13T05:03:24.357Z,19.300
2022-10-13T05:04:29.546Z,18.550
2022-10-13T05:05:20.368Z,17.400
2022-10-13T05:06:27.920Z,19.250
2022-10-13T05:07:36.432Z,20.000
2022-10-13T05:08:27.972Z,21.100
2022-10-13T05:09:25.681Z,22.050
2022-10-13T05:10:35.453Z,24.300
2022-10-13T05:11:27.941Z,25.300
2022-10-13T05:12:25.377Z,25.350
2022-10-13T05:13:20.454Z,26.400
2022-10-13T05:14:20.343Z,27.700
2022-10-13T05:15:26.057Z,28.950
2022-10-13T05:16:29.633Z,26.050
2022-10-13T05:17:35.223Z,21.300
2022-10-13T05:18:30.550Z,26.600
2022-10-13T05:19:26.514Z,26.400
2022-10-13T05:20:23.726Z,23.400
2022-10-13T05:21:26.169Z,23.650
2022-10-13T05:22:25.977Z,22.850
2022-10-13T05:23:25.016Z,20.000
2022-10-13T05:24:25.265Z,19.900
2022-10-13T05:25:33.669Z,20.600
2022-10-13T05:26:27.751Z,20.700
2022-10-13T05:27:26.340Z,23.600
2022-10-13T05:28:32.575Z,20.500
2022-10-13T05:29:20.585Z,19.900
2022-10-13T05:30:28.994Z,21.900
2022-10-13T05:31:24.488Z,20.500
2022-10-13T05:32:21.252Z,18.500
2022-10-13T05:33:24.941Z,20.900
2022-10-13T05:34:19.994Z,21.000
2022-10-13T05:35:36.504Z,24.250
2022-10-13T05:36:38.112Z,23.600
2022-10-13T05:37:23.903Z,23.200
2022-10-13T05:38:31.994Z,27.050
2022-10-13T05:39:28.809Z,23.800
2022-10-13T05:40:24.071Z,24.350
2022-10-13T05:41:24.003Z,22.600
2022-10-13T05:42:44.175Z,22.900
2022-10-13T05:43:32.935Z,22.900
2022-10-13T05:44:23.858Z,21.700
2022-10-13T05:45:32.206Z,23.600
2022-10-13T05:46:28.387Z,22.500
2022-10-13T05:47:27.334Z,25.500
2022-10-13T05:48:23.893Z,24.550
2022-10-13T05:49:30.082Z,21.550
2022-10-13T05:50:28.080Z,22.400
2022-10-13T05:51:27.251Z,28.350
2022-10-13T05:52:22.427Z,30.250
2022-10-13T05:53:30.779Z,25.400
2022-10-13T05:54:28.772Z,24.350
2022-10-13T05:55:22.382Z,26.200
2022-10-13T05:56:33.374Z,27.500
2022-10-13T05:57:27.334Z,26.950
2022-10-13T05:58:22.222Z,24.300
2022-10-13T05:59:27.158Z,21.800
2022-10-13T06:00:30.069Z,22.500
2022-10-13T06:01:27.806Z,25.250
2022-10-13T06:02:26.208Z,26.250
2022-10-13T06:03:30.870Z,20.400
2022-10-13T06:04:26.437Z,19.500
2022-10-13T06:05:28.587Z,20.000
2022-10-13T06:06:33.044Z,20.350
2022-10-13T06:07:31.625Z,20.100
2022-10-13T06:08:25.502Z,20.650
2022-10-13T06:09:19.872Z,20.700
2022-10-13T06:10:22.194Z,20.200
2022-10-13T06:11:29.517Z,20.250
2022-10-13T06:12:39.461Z,22.300
2022-10-13T06:13:34.997Z,22.550
2022-10-13T06:14:27.575Z,21.750
2022-10-13T06:15:28.545Z,25.100
2022-10-13T06:16:23.614Z,23.700
2022-10-13T06:17:28.250Z,22.000
2022-10-13T06:18:31.234Z,19.700
2022-10-13T06:19:27.957Z,19.300
2022-10-13T06:20:40.155Z,23.850
2022-10-13T06:21:32.327Z,20.900
2022-10-13T06:22:23.164Z,19.050
2022-10-13T06:23:24.352Z,20.400
2022-10-13T06:24:31.535Z,19.400
2022-10-13T06:25:20.652Z,21.450
2022-10-13T06:26:24.608Z,23.600
2022-10-13T06:27:32.787Z,20.700
2022-10-13T06:28:22.362Z,23.100
2022-10-13T06:29:28.270Z,22.200
2022-10-13T06:30:20.084Z,23.550
2022-10-13T06:31:33.250Z,22.500
2022-10-13T06:32:26.031Z,24.250
2022-10-13T06:33:25.434Z,24.600
2022-10-13T06:34:31.778Z,26.500
2022-10-13T06:35:27.824Z,31.350
2022-10-13T06:36:27.969Z,30.650
2022-10-13T06:37:27.133Z,24.300
2022-10-13T06:38:29.787Z,23.700
2022-10-13T06:39:22.447Z,24.450
2022-10-13T06:40:23.698Z,25.500
2022-10-13T06:41:34.740Z,21.700
2022-10-13T06:42:28.348Z,20.900
2022-10-13T06:43:28.950Z,21.600
2022-10-13T06:44:28.035Z,25.250
2022-10-13T06:45:34.525Z,24.950
2022-10-13T06:46:29.352Z,26.600
2022-10-13T06:47:24.735Z,28.400
2022-10-13T06:48:34.027Z,27.350
2022-10-13T06:49:29.554Z,20.900
2022-10-13T06:50:24.796Z,22.150
2022-10-13T06:51:22.757Z,26.700
2022-10-13T06:52:24.985Z,29.050
2022-10-13T06:53:27.614Z,24.400
2022-10-13T06:54:24.387Z,30.350
2022-10-13T06:55:31.703Z,32.150
2022-10-13T06:56:31.950Z,29.700
2022-10-13T06:57:25.565Z,33.850
2022-10-13T06:58:19.859Z,26.850
2022-10-13T06:59:26.597Z,24.100
2022-10-13T07:00:29.236Z,24.700
2022-10-13T07:01:41.534Z,26.800
2022-10-13T07:02:30.836Z,31.700
2022-10-13T07:03:22.180Z,33.450
2022-10-13T07:04:29.714Z,32.050
2022-10-13T07:05:21.060Z,26.500
2022-10-13T07:06:33.906Z,31.550
2022-10-13T07:07:32.316Z,31.700
2022-10-13T07:08:24.528Z,32.000
2022-10-13T07:09:33.859Z,35.300
2022-10-13T07:10:27.212Z,32.900
2022-10-13T07:11:24.154Z,30.900
2022-10-13T07:12:25.358Z,34.200
2022-10-13T07:13:42.230Z,35.250
2022-10-13T07:14:30.675Z,33.850
2022-10-13T07:15:22.239Z,27.900
2022-10-13T07:16:32.745Z,26.150
2022-10-13T07:17:34.558Z,26.600
2022-10-13T07:18:24.002Z,27.200
2022-10-13T07:19:22.294Z,28.800
2022-10-13T07:20:31.846Z,27.500
2022-10-13T07:21:26.432Z,27.350
2022-10-13T07:22:27.667Z,29.100
2022-10-13T07:23:31.893Z,30.700
2022-10-13T07:24:36.204Z,28.750
2022-10-13T07:25:27.054Z,25.150
2022-10-13T07:26:23.183Z,29.100
2022-10-13T07:27:33.289Z,31.750
2022-10-13T07:28:29.482Z,32.800
2022-10-13T07:29:26.530Z,33.550
2022-10-13T07:30:21.955Z,29.250
2022-10-13T07:31:28.143Z,30.700
2022-10-13T07:32:28.292Z,32.500
2022-10-13T07:33:22.400Z,29.950
2022-10-13T07:34:30.040Z,27.100
2022-10-13T07:35:30.634Z,25.450
2022-10-13T07:36:22.204Z,31.950
2022-10-13T07:37:25.434Z,28.350
2022-10-13T07:38:28.337Z,26.000
2022-10-13T07:39:28.676Z,26.000
2022-10-13T07:40:20.005Z,28.450
2022-10-13T07:41:21.673Z,30.100
2022-10-13T07:42:31.031Z,31.500
2022-10-13T07:43:24.153Z,26.800
2022-10-13T07:44:29.207Z,29.000
2022-10-13T07:45:25.471Z,31.700
2022-10-13T07:46:24.107Z,26.450
2022-10-13T07:47:20.187Z,29.900
2022-10-13T07:48:26.498Z,25.200
2022-10-13T07:49:29.325Z,29.450
2022-10-13T07:50:22.064Z,29.500
2022-10-13T07:51:27.901Z,25.050
2022-10-13T07:52:30.804Z,25.100
2022-10-13T07:53:25.963Z,27.400
2022-10-13T07:54:23.793Z,25.700
2022-10-13T07:55:32.971Z,25.750
2022-10-13T07:56:21.459Z,23.600
2022-10-13T07:57:25.166Z,24.900
2022-10-13T07:58:27.405Z,26.300
2022-10-13T07:59:31.157Z,27.000
2022-10-13T08:00:28.192Z,26.800
2022-10-13T08:01:25.258Z,28.600
2022-10-13T08:02:23.133Z,31.800
2022-10-13T08:03:28.499Z,32.050
2022-10-13T08:04:24.126Z,32.700
2022-10-13T08:05:32.146Z,27.500
2022-10-13T08:06:28.158Z,32.900
2022-10-13T08:07:27.969Z,33.550
2022-10-13T08:08:23.717Z,32.800
2022-10-13T08:09:30.904Z,26.750
2022-10-13T08:10:30.059Z,30.150
2022-10-13T08:11:24.452Z,34.400
2022-10-13T08:12:33.152Z,36.300
2022-10-13T08:13:21.115Z,37.450
2022-10-13T08:14:24.907Z,34.800
2022-10-13T08:15:19.729Z,32.750
2022-10-13T08:16:32.934Z,31.200
2022-10-13T08:17:29.598Z,28.500
2022-10-13T08:18:22.638Z,30.750
2022-10-13T08:19:22.090Z,35.200
2022-10-13T08:20:28.855Z,31.950
2022-10-13T08:21:45.747Z,29.500
2022-10-13T08:22:27.276Z,27.600
2022-10-13T08:23:25.432Z,27.800
2022-10-13T08:24:30.959Z,26.200
2022-10-13T08:25:23.503Z,27.650
2022-10-13T08:26:25.332Z,27.250
2022-10-13T08:27:49.817Z,27.300
2022-10-13T08:28:26.909Z,26.900
2022-10-13T08:29:23.739Z,29.250
2022-10-13T08:30:30.809Z,27.200
2022-10-13T08:31:29.692Z,28.550
2022-10-13T08:32:24.132Z,33.300
2022-10-13T08:33:30.241Z,32.300
2022-10-13T08:34:21.173Z,34.000
2022-10-13T08:35:24.323Z,33.300
2022-10-13T08:36:22.902Z,34.050
2022-10-13T08:37:30.748Z,32.700
2022-10-13T08:38:29.430Z,31.800
2022-10-13T08:39:24.616Z,35.100
2022-10-13T08:40:34.607Z,29.400
2022-10-13T08:41:31.613Z,25.750
2022-10-13T08:42:36.173Z,25.600
2022-10-13T08:43:20.273Z,29.800
2022-10-13T08:45:06.373Z,31.650
2022-10-13T08:45:42.824Z,32.000
2022-10-13T08:46:24.112Z,30.700
2022-10-13T08:47:34.573Z,30.350
2022-10-13T08:48:29.488Z,32.500
2022-10-13T08:49:24.162Z,32.900
2022-10-13T08:50:20.308Z,34.000
2022-10-13T08:51:30.074Z,34.500
2022-10-13T08:52:25.955Z,33.250
2022-10-13T08:53:26.317Z,32.600
2022-10-13T08:54:36.222Z,31.400
2022-10-13T08:55:27.860Z,28.300
2022-10-13T08:56:31.004Z,28.750
2022-10-13T08:57:22.831Z,29.000
2022-10-13T08:58:32.048Z,33.050
2022-10-13T08:59:24.988Z,34.900
2022-10-13T09:00:23.989Z,35.950
2022-10-13T09:01:20.947Z,33.150
2022-10-13T09:02:32.246Z,33.100
2022-10-13T09:03:23.927Z,33.950
2022-10-13T09:04:21.760Z,29.750
2022-10-13T09:05:30.515Z,32.000
2022-10-13T09:06:27.977Z,33.150
2022-10-13T09:07:24.636Z,36.800
2022-10-13T09:08:24.323Z,31.000
2022-10-13T09:09:30.010Z,30.350
2022-10-13T09:10:22.678Z,26.500
2022-10-13T09:11:20.040Z,27.800
2022-10-13T09:12:21.950Z,27.050
2022-10-13T09:13:30.020Z,28.300
2022-10-13T09:14:22.089Z,27.650
2022-10-13T09:15:31.266Z,26.700
2022-10-13T09:16:23.029Z,30.000
2022-10-13T09:17:24.312Z,31.750
2022-10-13T09:18:21.752Z,29.600
2022-10-13T09:19:26.992Z,32.350
2022-10-13T09:20:28.652Z,35.800
2022-10-13T09:21:22.607Z,33.500
2022-10-13T09:22:36.303Z,35.200
2022-10-13T09:23:28.240Z,35.200
2022-10-13T09:24:24.379Z,36.200
2022-10-13T09:25:23.790Z,34.800
2022-10-13T09:26:32.394Z,32.450
2022-10-13T09:27:23.792Z,33.300
2022-10-13T09:28:22.430Z,29.900
2022-10-13T09:29:34.287Z,29.200
2022-10-13T09:30:32.940Z,28.450
2022-10-13T09:31:24.435Z,27.650
2022-10-13T09:32:23.330Z,27.700
2022-10-13T09:33:28.748Z,29.200
2022-10-13T09:34:26.830Z,31.550
2022-10-13T09:35:23.801Z,32.600
2022-10-13T09:36:24.689Z,31.550
2022-10-13T09:37:30.907Z,31.500
2022-10-13T09:38:26.319Z,27.550
2022-10-13T09:39:23.272Z,25.100
2022-10-13T09:40:30.141Z,28.400
2022-10-13T09:41:28.816Z,30.150
2022-10-13T09:42:23.861Z,31.500
2022-10-13T09:43:27.557Z,30.900
2022-10-13T09:44:27.855Z,29.050
2022-10-13T09:45:24.328Z,28.000
2022-10-13T09:46:20.446Z,26.200
2022-10-13T09:47:24.525Z,27.450
2022-10-13T09:48:28.255Z,28.650
2022-10-13T09:49:25.107Z,30.400
2022-10-13T09:50:25.101Z,28.600
2022-10-13T09:51:28.109Z,30.000
2022-10-13T09:52:26.082Z,28.700
2022-10-13T09:53:20.274Z,28.550
2022-10-13T09:54:25.272Z,30.700
2022-10-13T09:55:22.779Z,33.300
2022-10-13T09:56:25.161Z,30.600
2022-10-13T09:57:25.141Z,32.000
2022-10-13T09:58:29.617Z,32.100
2022-10-13T09:59:24.257Z,31.200
2022-10-13T10:00:22.077Z,34.200
2022-10-13T10:01:27.889Z,34.500
2022-10-13T10:02:26.675Z,33.300
2022-10-13T10:03:22.252Z,34.100
2022-10-13T10:04:32.778Z,32.950
2022-10-13T10:05:24.204Z,31.950
2022-10-13T10:06:26.995Z,33.600
2022-10-13T10:07:23.518Z,34.550
2022-10-13T10:08:38.751Z,36.450
2022-10-13T10:09:23.590Z,36.100
2022-10-13T10:10:23.758Z,36.200
2022-10-13T10:11:35.963Z,34.250
2022-10-13T10:12:28.426Z,36.400
2022-10-13T10:13:26.483Z,35.350
2022-10-13T10:14:20.212Z,37.700
2022-10-13T10:15:32.414Z,34.050
2022-10-13T10:16:26.439Z,33.700
2022-10-13T10:17:22.564Z,34.400
2022-10-13T10:18:31.758Z,35.200
2022-10-13T10:19:30.495Z,32.500
2022-10-13T10:20:24.544Z,30.500
2022-10-13T10:21:20.114Z,33.550
2022-10-13T10:22:32.980Z,30.900
2022-10-13T10:23:19.619Z,29.150
2022-10-13T10:24:22.696Z,28.550
2022-10-13T10:25:37.150Z,27.600
2022-10-13T10:26:32.856Z,28.000
2022-10-13T10:27:24.486Z,27.300
2022-10-13T10:28:20.595Z,26.200
2022-10-13T10:29:28.583Z,25.250
2022-10-13T10:30:26.473Z,25.650
2022-10-13T10:31:22.506Z,25.700
2022-10-13T10:32:33.596Z,25.500
2022-10-13T10:33:28.287Z,26.700
2022-10-13T10:34:20.055Z,25.700
2022-10-13T10:35:20.575Z,24.050
2022-10-13T10:36:33.693Z,22.900
2022-10-13T10:37:28.603Z,23.500
2022-10-13T10:38:25.292Z,24.000
2022-10-13T10:39:23.384Z,23.600
2022-10-13T10:40:21.916Z,20.500
2022-10-13T10:41:24.357Z,20.300
2022-10-13T10:42:20.825Z,20.000
2022-10-13T10:43:23.991Z,21.700
2022-10-13T10:44:26.198Z,20.600
2022-10-13T10:45:22.285Z,18.100
2022-10-13T10:46:30.530Z,18.700
2022-10-13T10:47:22.629Z,19.800
2022-10-13T10:48:29.186Z,21.600
2022-10-13T10:49:20.501Z,22.500
2022-10-13T10:50:29.179Z,21.300
2022-10-13T10:51:29.725Z,21.100
2022-10-13T10:52:22.406Z,21.350
2022-10-13T10:53:32.061Z,21.950
2022-10-13T10:54:26.025Z,20.200
2022-10-13T10:55:27.406Z,16.850
2022-10-13T10:56:22.417Z,16.100
2022-10-13T10:57:23.766Z,16.700
2022-10-13T10:58:29.218Z,18.000
2022-10-13T10:59:24.327Z,17.500
2022-10-13T11:00:37.610Z,17.450
2022-10-13T11:01:45.721Z,19.400
2022-10-13T11:02:26.909Z,15.400
2022-10-13T11:03:21.383Z,16.100
2022-10-13T11:04:29.987Z,15.400
2022-10-13T11:05:30.410Z,14.800
2022-10-13T11:06:22.727Z,14.500
2022-10-13T11:07:32.416Z,14.850
2022-10-13T11:08:20.627Z,14.400
2022-10-13T11:09:27.445Z,14.250
2022-10-13T11:10:22.325Z,13.600
2022-10-13T11:11:37.220Z,12.850
2022-10-13T11:12:26.042Z,12.400
2022-10-13T11:13:24.806Z,13.300
2022-10-13T11:14:27.568Z,13.200
2022-10-13T11:15:29.544Z,12.600
2022-10-13T11:16:24.200Z,12.050
2022-10-13T11:17:23.725Z,11.600
2022-10-13T11:18:33.475Z,10.550
2022-10-13T11:19:26.087Z,10.000
2022-10-13T11:20:22.202Z,10.000
2022-10-13T11:21:22.217Z,9.650
2022-10-13T11:22:29.751Z,10.100
2022-10-13T11:23:24.114Z,11.900
2022-10-13T11:24:24.966Z,12.600
2022-10-13T11:25:22.757Z,10.200
2022-10-13T11:26:28.314Z,10.950
2022-10-13T11:27:21.977Z,10.600
2022-10-13T11:28:28.084Z,9.400
2022-10-13T11:29:30.699Z,9.000
2022-10-13T11:30:24.659Z,10.000
2022-10-13T11:31:22.466Z,10.800
2022-10-13T11:32:26.858Z,11.100
2022-10-13T11:33:28.080Z,10.100
2022-10-13T11:34:25.106Z,9.100
2022-10-13T11:35:28.308Z,8.150
2022-10-13T11:36:21.489Z,8.150
2022-10-13T11:37:26.846Z,9.100
2022-10-13T11:38:21.196Z,9.650
2022-10-13T11:39:21.366Z,9.850
2022-10-13T11:40:26.149Z,7.800
2022-10-13T11:41:22.522Z,8.400
2022-10-13T11:42:26.948Z,8.900
2022-10-13T11:43:30.383Z,8.100
2022-10-13T11:44:20.382Z,8.150
2022-10-13T11:45:22.501Z,7.700
2022-10-13T11:46:24.454Z,8.250
2022-10-13T11:47:26.341Z,8.100
2022-10-13T11:48:22.493Z,7.800
2022-10-13T11:49:34.690Z,7.450
2022-10-13T11:50:28.216Z,8.150
2022-10-13T11:51:27.517Z,8.400
2022-10-13T11:52:23.232Z,8.800
2022-10-13T11:53:21.870Z,7.950
2022-10-13T11:54:28.449Z,8.000
2022-10-13T11:55:24.839Z,7.700
2022-10-13T11:56:32.204Z,8.500
2022-10-13T11:57:24.416Z,8.600
2022-10-13T11:58:24.356Z,8.300
2022-10-13T11:59:22.140Z,7.350
2022-10-13T12:00:30.784Z,7.600
2022-10-13T12:01:26.477Z,7.400
2022-10-13T12:02:27.271Z,8.400
2022-10-13T12:03:34.318Z,7.150
2022-10-13T12:04:28.120Z,7.400
2022-10-13T12:05:24.348Z,7.950
2022-10-13T12:06:23.075Z,8.900
2022-10-13T12:07:32.456Z,8.850
2022-10-13T12:08:22.780Z,9.800
2022-10-13T12:09:22.227Z,7.950
2022-10-13T12:10:26.135Z,7.150
2022-10-13T12:11:28.743Z,7.400
2022-10-13T12:12:26.745Z,8.800
2022-10-13T12:13:23.540Z,9.400
2022-10-13T12:14:23.736Z,7.100
2022-10-13T12:15:26.163Z,7.400
2022-10-13T12:16:24.406Z,7.100
2022-10-13T12:17:28.073Z,7.850
2022-10-13T12:18:28.030Z,7.100
2022-10-13T12:19:23.968Z,7.550
2022-10-13T12:20:20.281Z,6.650
2022-10-13T12:21:21.097Z,7.100
2022-10-13T12:22:19.728Z,7.400
2022-10-13T12:23:25.590Z,7.300
2022-10-13T12:24:32.272Z,7.100
2022-10-13T12:25:23.268Z,7.200
2022-10-13T12:26:24.025Z,6.500
2022-10-13T12:27:26.219Z,6.400
2022-10-13T12:28:32.224Z,6.600
2022-10-13T12:29:34.903Z,7.000
2022-10-13T12:30:23.225Z,7.150
2022-10-13T12:31:37.498Z,6.750
2022-10-13T12:32:31.551Z,7.100
2022-10-13T12:33:23.483Z,6.800
2022-10-13T12:34:23.467Z,7.900
2022-10-13T12:35:31.636Z,7.450
2022-10-13T12:36:30.234Z,7.450
2022-10-13T12:37:22.512Z,7.600
2022-10-13T12:38:22.949Z,7.400
2022-10-13T12:39:32.632Z,8.050
2022-10-13T12:40:24.149Z,8.300
2022-10-13T12:41:23.805Z,7.000
2022-10-13T12:42:33.494Z,6.600
2022-10-13T12:43:26.435Z,7.200
2022-10-13T12:44:22.689Z,7.900
2022-10-13T12:45:32.222Z,7.600
2022-10-13T12:46:28.459Z,8.000
2022-10-13T12:47:24.568Z,9.150
2022-10-13T12:48:21.718Z,9.800
2022-10-13T12:49:25.851Z,8.100
2022-10-13T12:50:26.419Z,6.350
2022-10-13T12:51:22.558Z,6.700
2022-10-13T12:52:23.128Z,7.050
2022-10-13T12:53:30.306Z,7.150
2022-10-13T12:54:24.489Z,7.300
2022-10-13T12:55:20.473Z,8.600
2022-10-13T12:56:30.134Z,8.900
2022-10-13T12:57:27.347Z,6.600
2022-10-13T12:58:22.464Z,6.600
2022-10-13T12:59:29.127Z,6.900
2022-10-13T13:00:24.511Z,6.700
2022-10-13T13:01:28.057Z,7.450
2022-10-13T13:02:20.844Z,8.100
2022-10-13T13:03:24.592Z,7.200
2022-10-13T13:04:27.737Z,7.650
2022-10-13T13:05:24.436Z,8.000
2022-10-13T13:06:22.991Z,7.000
2022-10-13T13:07:26.351Z,6.700
2022-10-13T13:08:26.266Z,6.000
2022-10-13T13:09:21.919Z,6.850
2022-10-13T13:10:28.767Z,6.750
2022-10-13T13:11:29.163Z,6.900
2022-10-13T13:12:22.747Z,7.000
2022-10-13T13:13:21.814Z,7.500
2022-10-13T13:14:28.126Z,7.500
2022-10-13T13:15:23.257Z,6.950
2022-10-13T13:16:20.410Z,7.300
2022-10-13T13:17:57.340Z,6.850
2022-10-13T13:18:27.354Z,6.600
2022-10-13T13:19:22.471Z,6.700
2022-10-13T13:20:24.687Z,7.500
2022-10-13T13:21:29.474Z,7.400
2022-10-13T13:22:27.288Z,6.900
2022-10-13T13:23:20.202Z,7.300
2022-10-13T13:24:39.733Z,7.250
2022-10-13T13:25:29.232Z,7.000
2022-10-13T13:26:24.005Z,6.550
2022-10-13T13:27:29.977Z,6.650
2022-10-13T13:28:29.805Z,6.900
2022-10-13T13:29:24.373Z,6.600
2022-10-13T13:30:25.829Z,6.700
2022-10-13T13:31:24.779Z,7.500
2022-10-13T13:32:26.240Z,7.200
2022-10-13T13:33:30.343Z,7.250
2022-10-13T13:34:23.726Z,7.000
2022-10-13T13:35:28.548Z,6.800
2022-10-13T13:36:24.051Z,6.500
2022-10-13T13:37:20.819Z,6.700
2022-10-13T13:38:25.173Z,6.050
2022-10-13T13:39:28.759Z,6.300
2022-10-13T13:40:24.188Z,6.500
2022-10-13T13:41:23.474Z,6.250
2022-10-13T13:42:20.647Z,7.900
2022-10-13T13:43:24.050Z,6.800
2022-10-13T13:44:23.407Z,5.850
2022-10-13T13:45:25.477Z,6.250
2022-10-13T13:46:26.876Z,6.150
2022-10-13T13:47:22.710Z,6.200
2022-10-13T13:48:25.589Z,6.000
2022-10-13T13:49:25.096Z,6.100